sensor_id;sensor_type;location;lat;lon;timestamp;temperature;humidity
21616;DHT22;10970;48.714;9.584;2022-11-20T00:01:32;6.50;99.90
21616;DHT22;10970;48.714;9.584;2022-11-20T00:03:58;6.40;99.90
21616;DHT22;10970;48.714;9.584;2022-11-20T00:09:46;6.30;99.90
21616;DHT22;10970;48.714;9.584;2022-11-20T00:12:11;6.20;99.90
21616;DHT22;10970;48.714;9.584;2022-11-20T00:14:37;6.10;99.90
21616;DHT22;10970;48.714;9.584;2022-11-20T00:17:03;6.10;99.90
21616;DHT22;10970;48.714;9.584;2022-11-20T00:19:28;6.00;99.90
21616;DHT22;10970;48.714;9.584;2022-11-20T00:21:54;6.00;99.90
21616;DHT22;10970;48.714;9.584;2022-11-20T00:24:21;5.90;99.90
21616;DHT22;10970;48.714;9.584;2022-11-20T00:26:46;5.80;99.90
21616;DHT22;10970;48.714;9.584;2022-11-20T00:29:12;5.70;99.90
21616;DHT22;10970;48.714;9.584;2022-11-20T00:31:38;5.70;99.90
21616;DHT22;10970;48.714;9.584;2022-11-20T00:34:03;5.60;99.90
21616;DHT22;10970;48.714;9.584;2022-11-20T00:36:33;5.50;99.90
21616;DHT22;10970;48.714;9.584;2022-11-20T00:38:59;5.40;99.90
21616;DHT22;10970;48.714;9.584;2022-11-20T00:41:26;5.40;99.90
21616;DHT22;10970;48.714;9.584;2022-11-20T00:43:53;5.30;99.90
21616;DHT22;10970;48.714;9.584;2022-11-20T00:46:21;5.20;99.90
21616;DHT22;10970;48.714;9.584;2022-11-20T00:48:47;5.20;99.90
21616;DHT22;10970;48.714;9.584;2022-11-20T00:51:15;5.30;99.90
21616;DHT22;10970;48.714;9.584;2022-11-20T00:53:42;5.40;99.90
21616;DHT22;10970;48.714;9.584;2022-11-20T00:56:11;5.40;99.90
21616;DHT22;10970;48.714;9.584;2022-11-20T00:58:38;5.40;99.90
21616;DHT22;10970;48.714;9.584;2022-11-20T01:03:46;5.50;99.90
21616;DHT22;10970;48.714;9.584;2022-11-20T01:06:33;5.50;99.90
21616;DHT22;10970;48.714;9.584;2022-11-20T01:09:01;5.50;99.90
21616;DHT22;10970;48.714;9.584;2022-11-20T01:11:33;5.50;99.90
21616;DHT22;10970;48.714;9.584;2022-11-20T01:14:01;5.50;99.90
21616;DHT22;10970;48.714;9.584;2022-11-20T01:16:28;5.50;99.90
21616;DHT22;10970;48.714;9.584;2022-11-20T01:18:57;5.50;99.90
21616;DHT22;10970;48.714;9.584;2022-11-20T01:21:26;5.50;99.90
21616;DHT22;10970;48.714;9.584;2022-11-20T01:23:52;5.50;99.90
21616;DHT22;10970;48.714;9.584;2022-11-20T01:26:26;5.50;99.90
21616;DHT22;10970;48.714;9.584;2022-11-20T01:29:22;5.50;99.90
21616;DHT22;10970;48.714;9.584;2022-11-20T01:31:48;5.60;99.90
21616;DHT22;10970;48.714;9.584;2022-11-20T01:34:16;5.60;99.90
21616;DHT22;10970;48.714;9.584;2022-11-20T01:36:43;5.50;99.90
21616;DHT22;10970;48.714;9.584;2022-11-20T01:39:23;5.50;99.90
21616;DHT22;10970;48.714;9.584;2022-11-20T01:42:02;5.50;99.90
21616;DHT22;10970;48.714;9.584;2022-11-20T01:44:56;5.50;99.90
21616;DHT22;10970;48.714;9.584;2022-11-20T01:47:42;5.50;99.90
21616;DHT22;10970;48.714;9.584;2022-11-20T01:50:22;5.50;99.90
21616;DHT22;10970;48.714;9.584;2022-11-20T01:52:56;5.50;99.90
21616;DHT22;10970;48.714;9.584;2022-11-20T01:55:32;5.50;99.90
21616;DHT22;10970;48.714;9.584;2022-11-20T01:57:59;5.50;99.90
21616;DHT22;10970;48.714;9.584;2022-11-20T02:00:25;5.50;99.90
21616;DHT22;10970;48.714;9.584;2022-11-20T02:03:18;5.60;99.90
21616;DHT22;10970;48.714;9.584;2022-11-20T02:05:59;5.50;99.90
21616;DHT22;10970;48.714;9.584;2022-11-20T02:08:26;5.50;99.90
21616;DHT22;10970;48.714;9.584;2022-11-20T02:10:53;5.60;99.90
21616;DHT22;10970;48.714;9.584;2022-11-20T02:13:18;5.50;99.90
21616;DHT22;10970;48.714;9.584;2022-11-20T02:16:03;5.50;99.90
21616;DHT22;10970;48.714;9.584;2022-11-20T02:18:30;5.50;99.90
21616;DHT22;10970;48.714;9.584;2022-11-20T02:26:26;5.50;99.90
21616;DHT22;10970;48.714;9.584;2022-11-20T02:28:53;5.50;99.90
21616;DHT22;10970;48.714;9.584;2022-11-20T02:31:19;5.40;99.90
21616;DHT22;10970;48.714;9.584;2022-11-20T02:33:45;5.40;99.90
21616;DHT22;10970;48.714;9.584;2022-11-20T02:36:14;5.40;99.90
21616;DHT22;10970;48.714;9.584;2022-11-20T02:38:40;5.30;99.90
21616;DHT22;10970;48.714;9.584;2022-11-20T02:41:06;5.20;99.90
21616;DHT22;10970;48.714;9.584;2022-11-20T02:43:32;5.10;99.90
21616;DHT22;10970;48.714;9.584;2022-11-20T02:45:58;5.10;99.90
21616;DHT22;10970;48.714;9.584;2022-11-20T02:48:23;5.00;99.90
21616;DHT22;10970;48.714;9.584;2022-11-20T02:50:49;5.00;99.90
21616;DHT22;10970;48.714;9.584;2022-11-20T02:53:14;5.00;99.90
21616;DHT22;10970;48.714;9.584;2022-11-20T02:55:40;4.90;99.90
21616;DHT22;10970;48.714;9.584;2022-11-20T02:58:06;4.90;99.90
21616;DHT22;10970;48.714;9.584;2022-11-20T03:00:31;4.90;99.90
21616;DHT22;10970;48.714;9.584;2022-11-20T03:03:16;4.90;99.90
21616;DHT22;10970;48.714;9.584;2022-11-20T03:05:41;5.00;99.90
21616;DHT22;10970;48.714;9.584;2022-11-20T03:08:07;5.10;99.90
21616;DHT22;10970;48.714;9.584;2022-11-20T03:10:33;5.00;99.90
21616;DHT22;10970;48.714;9.584;2022-11-20T03:12:58;5.00;99.90
21616;DHT22;10970;48.714;9.584;2022-11-20T03:15:24;5.00;99.90
21616;DHT22;10970;48.714;9.584;2022-11-20T03:17:53;4.90;99.90
21616;DHT22;10970;48.714;9.584;2022-11-20T03:20:19;5.00;99.90
21616;DHT22;10970;48.714;9.584;2022-11-20T03:22:45;5.00;99.90
21616;DHT22;10970;48.714;9.584;2022-11-20T03:25:10;5.00;99.90
21616;DHT22;10970;48.714;9.584;2022-11-20T03:27:49;5.10;99.90
21616;DHT22;10970;48.714;9.584;2022-11-20T03:30:15;5.00;99.90
21616;DHT22;10970;48.714;9.584;2022-11-20T03:36:04;5.10;99.90
21616;DHT22;10970;48.714;9.584;2022-11-20T03:38:30;5.10;99.90
21616;DHT22;10970;48.714;9.584;2022-11-20T03:41:04;5.20;99.90
21616;DHT22;10970;48.714;9.584;2022-11-20T03:43:31;5.20;99.90
21616;DHT22;10970;48.714;9.584;2022-11-20T03:45:56;5.20;99.90
21616;DHT22;10970;48.714;9.584;2022-11-20T03:48:22;5.20;99.90
21616;DHT22;10970;48.714;9.584;2022-11-20T03:50:48;5.20;99.90
21616;DHT22;10970;48.714;9.584;2022-11-20T03:53:14;5.20;99.90
21616;DHT22;10970;48.714;9.584;2022-11-20T03:55:40;5.20;99.90
21616;DHT22;10970;48.714;9.584;2022-11-20T03:58:06;5.20;99.90
21616;DHT22;10970;48.714;9.584;2022-11-20T04:00:32;5.20;99.90
21616;DHT22;10970;48.714;9.584;2022-11-20T04:02:58;5.10;99.90
21616;DHT22;10970;48.714;9.584;2022-11-20T04:05:24;5.10;99.90
21616;DHT22;10970;48.714;9.584;2022-11-20T04:07:50;5.10;99.90
21616;DHT22;10970;48.714;9.584;2022-11-20T04:10:15;5.20;99.90
21616;DHT22;10970;48.714;9.584;2022-11-20T04:12:41;5.10;99.90
21616;DHT22;10970;48.714;9.584;2022-11-20T04:15:07;5.00;99.90
21616;DHT22;10970;48.714;9.584;2022-11-20T04:17:33;5.00;99.90
21616;DHT22;10970;48.714;9.584;2022-11-20T04:19:58;5.00;99.90
21616;DHT22;10970;48.714;9.584;2022-11-20T04:22:24;5.00;99.90
21616;DHT22;10970;48.714;9.584;2022-11-20T04:24:49;4.90;99.90
21616;DHT22;10970;48.714;9.584;2022-11-20T04:27:18;4.90;99.90
21616;DHT22;10970;48.714;9.584;2022-11-20T04:29:43;4.80;99.90
21616;DHT22;10970;48.714;9.584;2022-11-20T04:32:09;5.00;99.90
21616;DHT22;10970;48.714;9.584;2022-11-20T04:34:35;5.00;99.90
21616;DHT22;10970;48.714;9.584;2022-11-20T04:37:00;5.00;99.90
21616;DHT22;10970;48.714;9.584;2022-11-20T04:39:26;5.00;99.90
21616;DHT22;10970;48.714;9.584;2022-11-20T04:48:35;5.20;99.90
21616;DHT22;10970;48.714;9.584;2022-11-20T04:51:04;5.30;99.90
21616;DHT22;10970;48.714;9.584;2022-11-20T04:53:30;5.20;99.90
21616;DHT22;10970;48.714;9.584;2022-11-20T04:56:09;5.20;99.90
21616;DHT22;10970;48.714;9.584;2022-11-20T04:58:36;5.30;99.90
21616;DHT22;10970;48.714;9.584;2022-11-20T05:01:15;5.30;99.90
21616;DHT22;10970;48.714;9.584;2022-11-20T05:03:42;5.30;99.90
21616;DHT22;10970;48.714;9.584;2022-11-20T05:06:10;5.30;99.90
21616;DHT22;10970;48.714;9.584;2022-11-20T05:08:36;5.30;99.90
21616;DHT22;10970;48.714;9.584;2022-11-20T05:11:10;5.30;99.90
21616;DHT22;10970;48.714;9.584;2022-11-20T05:13:36;5.30;99.90
21616;DHT22;10970;48.714;9.584;2022-11-20T05:16:07;5.30;99.90
21616;DHT22;10970;48.714;9.584;2022-11-20T05:18:34;5.30;99.90
21616;DHT22;10970;48.714;9.584;2022-11-20T05:21:00;5.30;99.90
21616;DHT22;10970;48.714;9.584;2022-11-20T05:23:26;5.40;99.90
21616;DHT22;10970;48.714;9.584;2022-11-20T05:25:54;5.40;99.90
21616;DHT22;10970;48.714;9.584;2022-11-20T05:28:20;5.40;99.90
21616;DHT22;10970;48.714;9.584;2022-11-20T05:30:45;5.50;99.90
21616;DHT22;10970;48.714;9.584;2022-11-20T05:33:11;5.50;99.90
21616;DHT22;10970;48.714;9.584;2022-11-20T05:35:37;5.50;99.90
21616;DHT22;10970;48.714;9.584;2022-11-20T05:38:02;5.60;99.90
21616;DHT22;10970;48.714;9.584;2022-11-20T05:40:28;5.60;99.90
21616;DHT22;10970;48.714;9.584;2022-11-20T05:42:53;5.60;99.90
21616;DHT22;10970;48.714;9.584;2022-11-20T05:45:19;5.60;99.90
21616;DHT22;10970;48.714;9.584;2022-11-20T05:47:44;5.60;99.90
21616;DHT22;10970;48.714;9.584;2022-11-20T05:50:10;5.60;99.90
21616;DHT22;10970;48.714;9.584;2022-11-20T05:52:36;5.70;99.90
21616;DHT22;10970;48.714;9.584;2022-11-20T05:55:01;5.60;99.90
21616;DHT22;10970;48.714;9.584;2022-11-20T05:57:27;5.60;99.90
21616;DHT22;10970;48.714;9.584;2022-11-20T05:59:52;5.70;99.90
21616;DHT22;10970;48.714;9.584;2022-11-20T06:02:18;5.70;99.90
21616;DHT22;10970;48.714;9.584;2022-11-20T06:04:44;5.70;99.90
21616;DHT22;10970;48.714;9.584;2022-11-20T06:07:09;5.70;99.90
21616;DHT22;10970;48.714;9.584;2022-11-20T06:09:35;5.70;99.90
21616;DHT22;10970;48.714;9.584;2022-11-20T06:12:01;5.70;99.90
21616;DHT22;10970;48.714;9.584;2022-11-20T06:14:26;5.70;99.90
21616;DHT22;10970;48.714;9.584;2022-11-20T06:16:52;5.70;99.90
21616;DHT22;10970;48.714;9.584;2022-11-20T06:19:17;5.80;99.90
21616;DHT22;10970;48.714;9.584;2022-11-20T06:21:43;5.80;99.90
21616;DHT22;10970;48.714;9.584;2022-11-20T06:24:09;5.70;99.90
21616;DHT22;10970;48.714;9.584;2022-11-20T06:26:36;5.80;99.90
21616;DHT22;10970;48.714;9.584;2022-11-20T06:29:01;5.80;99.90
21616;DHT22;10970;48.714;9.584;2022-11-20T06:31:27;5.80;99.90
21616;DHT22;10970;48.714;9.584;2022-11-20T06:33:53;5.90;99.90
21616;DHT22;10970;48.714;9.584;2022-11-20T06:36:21;5.90;99.90
21616;DHT22;10970;48.714;9.584;2022-11-20T06:38:47;5.90;99.90
21616;DHT22;10970;48.714;9.584;2022-11-20T06:41:15;5.90;99.90
21616;DHT22;10970;48.714;9.584;2022-11-20T06:43:42;6.00;99.90
21616;DHT22;10970;48.714;9.584;2022-11-20T06:46:09;5.90;99.90
21616;DHT22;10970;48.714;9.584;2022-11-20T06:48:35;6.00;99.90
21616;DHT22;10970;48.714;9.584;2022-11-20T06:51:03;6.00;99.90
21616;DHT22;10970;48.714;9.584;2022-11-20T06:53:29;6.00;99.90
21616;DHT22;10970;48.714;9.584;2022-11-20T06:55:56;6.10;99.90
21616;DHT22;10970;48.714;9.584;2022-11-20T06:58:22;6.10;99.90
21616;DHT22;10970;48.714;9.584;2022-11-20T07:00:48;6.10;99.90
21616;DHT22;10970;48.714;9.584;2022-11-20T07:03:13;6.10;99.90
21616;DHT22;10970;48.714;9.584;2022-11-20T07:05:39;6.00;99.90
21616;DHT22;10970;48.714;9.584;2022-11-20T07:08:05;6.20;99.90
21616;DHT22;10970;48.714;9.584;2022-11-20T07:10:31;6.20;99.90
21616;DHT22;10970;48.714;9.584;2022-11-20T07:12:57;6.20;99.90
21616;DHT22;10970;48.714;9.584;2022-11-20T07:15:24;6.30;99.90
21616;DHT22;10970;48.714;9.584;2022-11-20T07:17:50;6.20;99.90
21616;DHT22;10970;48.714;9.584;2022-11-20T07:20:16;6.30;99.90
21616;DHT22;10970;48.714;9.584;2022-11-20T07:22:42;6.30;99.90
21616;DHT22;10970;48.714;9.584;2022-11-20T07:25:09;6.30;99.90
21616;DHT22;10970;48.714;9.584;2022-11-20T07:27:35;6.30;99.90
21616;DHT22;10970;48.714;9.584;2022-11-20T07:30:02;6.30;99.90
21616;DHT22;10970;48.714;9.584;2022-11-20T07:32:27;6.30;99.90
21616;DHT22;10970;48.714;9.584;2022-11-20T07:34:53;6.30;99.90
21616;DHT22;10970;48.714;9.584;2022-11-20T07:37:19;6.30;99.90
21616;DHT22;10970;48.714;9.584;2022-11-20T07:39:44;6.40;99.90
21616;DHT22;10970;48.714;9.584;2022-11-20T07:42:10;6.40;99.90
21616;DHT22;10970;48.714;9.584;2022-11-20T07:44:37;6.50;99.90
21616;DHT22;10970;48.714;9.584;2022-11-20T07:47:03;6.40;99.90
21616;DHT22;10970;48.714;9.584;2022-11-20T07:49:29;6.40;99.90
21616;DHT22;10970;48.714;9.584;2022-11-20T07:51:55;6.40;99.90
21616;DHT22;10970;48.714;9.584;2022-11-20T07:54:21;6.60;99.90
21616;DHT22;10970;48.714;9.584;2022-11-20T07:56:50;6.60;99.90
21616;DHT22;10970;48.714;9.584;2022-11-20T07:59:16;6.70;99.90
21616;DHT22;10970;48.714;9.584;2022-11-20T08:01:42;6.70;99.90
21616;DHT22;10970;48.714;9.584;2022-11-20T08:04:09;6.60;99.90
21616;DHT22;10970;48.714;9.584;2022-11-20T08:06:35;6.60;99.90
21616;DHT22;10970;48.714;9.584;2022-11-20T08:09:01;6.60;99.90
21616;DHT22;10970;48.714;9.584;2022-11-20T08:11:27;6.60;99.90
21616;DHT22;10970;48.714;9.584;2022-11-20T08:14:11;6.70;99.90
21616;DHT22;10970;48.714;9.584;2022-11-20T08:16:37;6.70;99.90
21616;DHT22;10970;48.714;9.584;2022-11-20T08:19:03;6.70;99.90
21616;DHT22;10970;48.714;9.584;2022-11-20T08:21:30;6.80;99.90
21616;DHT22;10970;48.714;9.584;2022-11-20T08:23:57;6.80;99.90
21616;DHT22;10970;48.714;9.584;2022-11-20T08:26:23;6.90;99.90
21616;DHT22;10970;48.714;9.584;2022-11-20T08:28:49;7.00;99.90
21616;DHT22;10970;48.714;9.584;2022-11-20T08:31:15;7.10;99.90
21616;DHT22;10970;48.714;9.584;2022-11-20T08:33:40;7.00;99.90
21616;DHT22;10970;48.714;9.584;2022-11-20T08:36:06;7.00;99.90
21616;DHT22;10970;48.714;9.584;2022-11-20T08:38:32;7.00;99.90
21616;DHT22;10970;48.714;9.584;2022-11-20T08:40:58;7.00;99.90
21616;DHT22;10970;48.714;9.584;2022-11-20T08:43:42;6.90;99.90
21616;DHT22;10970;48.714;9.584;2022-11-20T08:46:08;6.90;99.90
21616;DHT22;10970;48.714;9.584;2022-11-20T08:48:34;6.90;99.90
21616;DHT22;10970;48.714;9.584;2022-11-20T08:50:59;6.90;99.90
21616;DHT22;10970;48.714;9.584;2022-11-20T08:53:26;6.90;99.90
21616;DHT22;10970;48.714;9.584;2022-11-20T08:55:51;7.00;99.90
21616;DHT22;10970;48.714;9.584;2022-11-20T08:58:17;7.10;99.90
21616;DHT22;10970;48.714;9.584;2022-11-20T09:00:43;7.20;99.90
21616;DHT22;10970;48.714;9.584;2022-11-20T09:03:08;7.20;99.90
21616;DHT22;10970;48.714;9.584;2022-11-20T09:05:34;7.20;99.90
21616;DHT22;10970;48.714;9.584;2022-11-20T09:08:00;7.20;99.90
21616;DHT22;10970;48.714;9.584;2022-11-20T09:10:28;7.20;99.90
21616;DHT22;10970;48.714;9.584;2022-11-20T09:12:55;7.20;99.90
21616;DHT22;10970;48.714;9.584;2022-11-20T09:15:20;7.20;99.90
21616;DHT22;10970;48.714;9.584;2022-11-20T09:17:57;7.20;99.90
21616;DHT22;10970;48.714;9.584;2022-11-20T09:20:24;7.20;99.90
21616;DHT22;10970;48.714;9.584;2022-11-20T09:22:50;7.20;99.90
21616;DHT22;10970;48.714;9.584;2022-11-20T09:25:16;7.20;99.90
21616;DHT22;10970;48.714;9.584;2022-11-20T09:27:41;7.10;99.90
21616;DHT22;10970;48.714;9.584;2022-11-20T09:30:09;7.10;99.90
21616;DHT22;10970;48.714;9.584;2022-11-20T09:32:35;7.20;99.90
21616;DHT22;10970;48.714;9.584;2022-11-20T09:35:01;7.20;99.90
21616;DHT22;10970;48.714;9.584;2022-11-20T09:37:27;7.30;99.90
21616;DHT22;10970;48.714;9.584;2022-11-20T09:39:53;7.30;99.90
21616;DHT22;10970;48.714;9.584;2022-11-20T09:42:44;7.40;99.90
21616;DHT22;10970;48.714;9.584;2022-11-20T09:45:57;7.40;99.90
21616;DHT22;10970;48.714;9.584;2022-11-20T09:51:03;7.40;99.90
21616;DHT22;10970;48.714;9.584;2022-11-20T09:56:03;7.30;99.90
21616;DHT22;10970;48.714;9.584;2022-11-20T09:58:39;7.30;99.90
21616;DHT22;10970;48.714;9.584;2022-11-20T10:01:13;7.30;99.90
21616;DHT22;10970;48.714;9.584;2022-11-20T10:06:17;7.30;99.90
21616;DHT22;10970;48.714;9.584;2022-11-20T10:08:55;7.30;99.90
21616;DHT22;10970;48.714;9.584;2022-11-20T10:24:24;7.20;99.90
21616;DHT22;10970;48.714;9.584;2022-11-20T10:29:45;7.10;99.90
21616;DHT22;10970;48.714;9.584;2022-11-20T10:32:15;7.20;99.90
21616;DHT22;10970;48.714;9.584;2022-11-20T10:34:52;7.20;99.90
21616;DHT22;10970;48.714;9.584;2022-11-20T10:37:24;7.20;99.90
21616;DHT22;10970;48.714;9.584;2022-11-20T10:40:09;7.20;99.90
21616;DHT22;10970;48.714;9.584;2022-11-20T10:48:31;7.20;99.90
21616;DHT22;10970;48.714;9.584;2022-11-20T10:56:42;7.30;99.90
21616;DHT22;10970;48.714;9.584;2022-11-20T11:01:56;7.20;99.90
21616;DHT22;10970;48.714;9.584;2022-11-20T11:04:43;7.20;99.90
21616;DHT22;10970;48.714;9.584;2022-11-20T11:09:53;6.90;99.90
21616;DHT22;10970;48.714;9.584;2022-11-20T11:12:21;6.80;99.90
21616;DHT22;10970;48.714;9.584;2022-11-20T11:14:53;6.80;99.90
21616;DHT22;10970;48.714;9.584;2022-11-20T11:17:23;6.80;99.90
21616;DHT22;10970;48.714;9.584;2022-11-20T11:28:19;6.70;99.90
21616;DHT22;10970;48.714;9.584;2022-11-20T11:30:46;7.20;99.90
21616;DHT22;10970;48.714;9.584;2022-11-20T11:33:25;6.70;99.90
21616;DHT22;10970;48.714;9.584;2022-11-20T11:35:58;6.70;99.90
21616;DHT22;10970;48.714;9.584;2022-11-20T11:38:40;6.70;99.90
21616;DHT22;10970;48.714;9.584;2022-11-20T11:41:11;6.70;99.90
21616;DHT22;10970;48.714;9.584;2022-11-20T11:43:38;6.70;99.90
21616;DHT22;10970;48.714;9.584;2022-11-20T11:46:33;6.70;99.90
21616;DHT22;10970;48.714;9.584;2022-11-20T11:54:03;6.80;99.90
21616;DHT22;10970;48.714;9.584;2022-11-20T11:56:32;6.80;99.90
21616;DHT22;10970;48.714;9.584;2022-11-20T11:59:00;6.80;99.90
21616;DHT22;10970;48.714;9.584;2022-11-20T12:01:36;6.90;99.90
21616;DHT22;10970;48.714;9.584;2022-11-20T12:07:15;7.20;99.90
21616;DHT22;10970;48.714;9.584;2022-11-20T12:09:46;7.20;99.90
21616;DHT22;10970;48.714;9.584;2022-11-20T12:12:18;7.20;99.90
21616;DHT22;10970;48.714;9.584;2022-11-20T12:14:47;7.20;99.90
21616;DHT22;10970;48.714;9.584;2022-11-20T12:17:15;7.30;99.90
21616;DHT22;10970;48.714;9.584;2022-11-20T12:19:41;7.30;99.90
21616;DHT22;10970;48.714;9.584;2022-11-20T12:30:10;7.40;99.90
21616;DHT22;10970;48.714;9.584;2022-11-20T12:40:28;7.50;99.90
21616;DHT22;10970;48.714;9.584;2022-11-20T12:43:22;7.60;99.90
21616;DHT22;10970;48.714;9.584;2022-11-20T12:49:03;7.50;99.90
21616;DHT22;10970;48.714;9.584;2022-11-20T12:57:36;7.90;99.90
21616;DHT22;10970;48.714;9.584;2022-11-20T13:00:07;8.00;99.90
21616;DHT22;10970;48.714;9.584;2022-11-20T13:11:21;8.10;99.90
21616;DHT22;10970;48.714;9.584;2022-11-20T13:16:44;8.10;99.90
21616;DHT22;10970;48.714;9.584;2022-11-20T13:19:13;8.10;99.90
21616;DHT22;10970;48.714;9.584;2022-11-20T13:21:45;8.10;99.90
21616;DHT22;10970;48.714;9.584;2022-11-20T13:29:41;8.10;99.90
21616;DHT22;10970;48.714;9.584;2022-11-20T13:32:20;8.20;99.90
21616;DHT22;10970;48.714;9.584;2022-11-20T13:34:55;8.20;99.90
21616;DHT22;10970;48.714;9.584;2022-11-20T13:37:36;8.20;99.90
21616;DHT22;10970;48.714;9.584;2022-11-20T13:40:12;8.10;99.90
21616;DHT22;10970;48.714;9.584;2022-11-20T13:42:51;8.00;99.90
21616;DHT22;10970;48.714;9.584;2022-11-20T13:45:26;8.00;99.90
21616;DHT22;10970;48.714;9.584;2022-11-20T13:47:53;7.80;99.90
21616;DHT22;10970;48.714;9.584;2022-11-20T13:50:27;7.70;99.90
21616;DHT22;10970;48.714;9.584;2022-11-20T14:01:20;7.90;99.90
21616;DHT22;10970;48.714;9.584;2022-11-20T14:03:47;7.80;99.90
21616;DHT22;10970;48.714;9.584;2022-11-20T14:06:27;7.90;99.90
21616;DHT22;10970;48.714;9.584;2022-11-20T14:08:55;7.90;99.90
21616;DHT22;10970;48.714;9.584;2022-11-20T14:11:26;7.90;99.90
21616;DHT22;10970;48.714;9.584;2022-11-20T14:16:35;7.80;99.90
21616;DHT22;10970;48.714;9.584;2022-11-20T14:19:31;7.70;99.90
21616;DHT22;10970;48.714;9.584;2022-11-20T14:22:19;7.70;99.90
21616;DHT22;10970;48.714;9.584;2022-11-20T14:24:46;7.50;99.90
21616;DHT22;10970;48.714;9.584;2022-11-20T14:27:14;7.40;99.90
21616;DHT22;10970;48.714;9.584;2022-11-20T14:29:40;7.50;99.90
21616;DHT22;10970;48.714;9.584;2022-11-20T14:32:09;7.50;99.90
21616;DHT22;10970;48.714;9.584;2022-11-20T14:34:39;7.50;99.90
21616;DHT22;10970;48.714;9.584;2022-11-20T14:37:11;7.60;99.90
21616;DHT22;10970;48.714;9.584;2022-11-20T14:39:41;7.60;99.90
21616;DHT22;10970;48.714;9.584;2022-11-20T14:42:18;7.70;99.90
21616;DHT22;10970;48.714;9.584;2022-11-20T14:44:44;7.60;99.90
21616;DHT22;10970;48.714;9.584;2022-11-20T14:47:12;7.60;99.90
21616;DHT22;10970;48.714;9.584;2022-11-20T14:49:39;7.60;99.90
21616;DHT22;10970;48.714;9.584;2022-11-20T14:52:24;7.60;99.90
21616;DHT22;10970;48.714;9.584;2022-11-20T14:57:29;7.60;99.90
21616;DHT22;10970;48.714;9.584;2022-11-20T15:00:17;7.40;99.90
21616;DHT22;10970;48.714;9.584;2022-11-20T15:02:48;7.30;99.90
21616;DHT22;10970;48.714;9.584;2022-11-20T15:05:15;7.30;99.90
21616;DHT22;10970;48.714;9.584;2022-11-20T15:07:45;7.20;99.90
21616;DHT22;10970;48.714;9.584;2022-11-20T15:10:12;7.20;99.90
21616;DHT22;10970;48.714;9.584;2022-11-20T15:12:48;7.10;99.90
21616;DHT22;10970;48.714;9.584;2022-11-20T15:17:58;7.00;99.90
21616;DHT22;10970;48.714;9.584;2022-11-20T15:20:28;6.90;99.90
21616;DHT22;10970;48.714;9.584;2022-11-20T15:22:55;6.90;99.90
21616;DHT22;10970;48.714;9.584;2022-11-20T15:25:21;6.90;99.90
21616;DHT22;10970;48.714;9.584;2022-11-20T15:27:55;6.90;99.90
21616;DHT22;10970;48.714;9.584;2022-11-20T15:30:21;7.00;99.90
21616;DHT22;10970;48.714;9.584;2022-11-20T15:32:48;7.00;99.90
21616;DHT22;10970;48.714;9.584;2022-11-20T15:35:15;7.00;99.90
21616;DHT22;10970;48.714;9.584;2022-11-20T15:37:41;7.00;99.90
21616;DHT22;10970;48.714;9.584;2022-11-20T15:40:08;7.00;99.90
21616;DHT22;10970;48.714;9.584;2022-11-20T15:42:34;7.00;99.90
21616;DHT22;10970;48.714;9.584;2022-11-20T15:45:00;7.00;99.90
21616;DHT22;10970;48.714;9.584;2022-11-20T15:47:32;7.00;99.90
21616;DHT22;10970;48.714;9.584;2022-11-20T15:49:58;6.90;99.90
21616;DHT22;10970;48.714;9.584;2022-11-20T15:52:24;7.00;99.90
21616;DHT22;10970;48.714;9.584;2022-11-20T15:54:50;6.90;99.90
21616;DHT22;10970;48.714;9.584;2022-11-20T15:57:16;6.90;99.90
21616;DHT22;10970;48.714;9.584;2022-11-20T15:59:41;6.80;99.90
21616;DHT22;10970;48.714;9.584;2022-11-20T16:02:11;6.80;99.90
21616;DHT22;10970;48.714;9.584;2022-11-20T16:04:37;6.70;99.90
21616;DHT22;10970;48.714;9.584;2022-11-20T16:07:03;6.70;99.90
21616;DHT22;10970;48.714;9.584;2022-11-20T16:09:28;6.60;99.90
21616;DHT22;10970;48.714;9.584;2022-11-20T16:11:54;6.60;99.90
21616;DHT22;10970;48.714;9.584;2022-11-20T16:14:20;6.40;99.90
21616;DHT22;10970;48.714;9.584;2022-11-20T16:17:04;6.20;99.90
21616;DHT22;10970;48.714;9.584;2022-11-20T16:19:29;6.10;99.90
21616;DHT22;10970;48.714;9.584;2022-11-20T16:21:57;5.90;99.90
21616;DHT22;10970;48.714;9.584;2022-11-20T16:24:23;5.90;99.90
21616;DHT22;10970;48.714;9.584;2022-11-20T16:26:48;5.80;99.90
21616;DHT22;10970;48.714;9.584;2022-11-20T16:29:14;5.70;99.90
21616;DHT22;10970;48.714;9.584;2022-11-20T16:31:40;5.70;99.90
21616;DHT22;10970;48.714;9.584;2022-11-20T16:34:07;5.70;99.90
21616;DHT22;10970;48.714;9.584;2022-11-20T16:36:33;5.60;99.90
21616;DHT22;10970;48.714;9.584;2022-11-20T16:39:01;5.70;99.90
21616;DHT22;10970;48.714;9.584;2022-11-20T16:41:30;5.60;99.90
21616;DHT22;10970;48.714;9.584;2022-11-20T16:43:58;5.70;99.90
21616;DHT22;10970;48.714;9.584;2022-11-20T16:46:26;5.60;99.90
21616;DHT22;10970;48.714;9.584;2022-11-20T16:48:53;5.60;99.90
21616;DHT22;10970;48.714;9.584;2022-11-20T16:51:19;5.60;99.90
21616;DHT22;10970;48.714;9.584;2022-11-20T16:53:45;5.60;99.90
21616;DHT22;10970;48.714;9.584;2022-11-20T16:56:17;5.60;99.90
21616;DHT22;10970;48.714;9.584;2022-11-20T16:58:44;5.60;99.90
21616;DHT22;10970;48.714;9.584;2022-11-20T17:01:13;5.60;99.90
21616;DHT22;10970;48.714;9.584;2022-11-20T17:03:40;5.60;99.90
21616;DHT22;10970;48.714;9.584;2022-11-20T17:06:23;5.60;99.90
21616;DHT22;10970;48.714;9.584;2022-11-20T17:08:49;5.60;99.90
21616;DHT22;10970;48.714;9.584;2022-11-20T17:11:17;5.60;99.90
21616;DHT22;10970;48.714;9.584;2022-11-20T17:13:43;5.60;99.90
21616;DHT22;10970;48.714;9.584;2022-11-20T17:16:11;5.50;99.90
21616;DHT22;10970;48.714;9.584;2022-11-20T17:18:38;5.60;99.90
21616;DHT22;10970;48.714;9.584;2022-11-20T17:21:05;5.50;99.90
21616;DHT22;10970;48.714;9.584;2022-11-20T17:23:32;5.50;99.90
21616;DHT22;10970;48.714;9.584;2022-11-20T17:28:31;5.60;99.90
21616;DHT22;10970;48.714;9.584;2022-11-20T17:31:01;5.60;99.90
21616;DHT22;10970;48.714;9.584;2022-11-20T17:33:27;5.70;99.90
21616;DHT22;10970;48.714;9.584;2022-11-20T17:35:53;5.70;99.90
21616;DHT22;10970;48.714;9.584;2022-11-20T17:38:19;5.60;99.90
21616;DHT22;10970;48.714;9.584;2022-11-20T17:40:45;5.60;99.90
21616;DHT22;10970;48.714;9.584;2022-11-20T17:43:11;5.70;99.90
21616;DHT22;10970;48.714;9.584;2022-11-20T17:45:37;5.70;99.90
21616;DHT22;10970;48.714;9.584;2022-11-20T17:48:02;5.80;99.90
21616;DHT22;10970;48.714;9.584;2022-11-20T17:50:28;5.70;99.90
21616;DHT22;10970;48.714;9.584;2022-11-20T17:52:54;5.80;99.90
21616;DHT22;10970;48.714;9.584;2022-11-20T17:55:20;5.70;99.90
21616;DHT22;10970;48.714;9.584;2022-11-20T17:57:46;5.70;99.90
21616;DHT22;10970;48.714;9.584;2022-11-20T18:00:18;5.70;99.90
21616;DHT22;10970;48.714;9.584;2022-11-20T18:02:44;5.70;99.90
21616;DHT22;10970;48.714;9.584;2022-11-20T18:05:10;5.70;99.90
21616;DHT22;10970;48.714;9.584;2022-11-20T18:07:36;5.70;99.90
21616;DHT22;10970;48.714;9.584;2022-11-20T18:10:03;5.70;99.90
21616;DHT22;10970;48.714;9.584;2022-11-20T18:12:29;5.60;99.90
21616;DHT22;10970;48.714;9.584;2022-11-20T18:14:55;5.70;99.90